createdAt,value
2022-10-11T00:00:59.170Z,13.32
2022-10-11T00:02:01.534Z,13.31
2022-10-11T00:03:05.783Z,13.29
2022-10-11T00:04:08.266Z,13.37
2022-10-11T00:05:10.857Z,13.33
2022-10-11T00:06:13.084Z,13.31
2022-10-11T00:07:15.272Z,13.32
2022-10-11T00:08:17.668Z,13.31
2022-10-11T00:09:19.975Z,13.22
2022-10-11T00:10:22.261Z,13.24
2022-10-11T00:11:24.571Z,13.19
2022-10-11T00:12:26.765Z,13.21
2022-10-11T00:13:29.625Z,13.18
2022-10-11T00:14:34.103Z,13.18
2022-10-11T00:15:36.408Z,13.13
2022-10-11T00:16:40.994Z,13.11
2022-10-11T00:17:43.886Z,13.15
2022-10-11T00:18:46.396Z,13.15
2022-10-11T00:19:48.965Z,13.17
2022-10-11T00:20:51.164Z,13.14
2022-10-11T00:21:53.575Z,13.13
2022-10-11T00:22:56.007Z,13.15
2022-10-11T00:23:58.461Z,13.22
2022-10-11T00:25:00.846Z,13.20
2022-10-11T00:26:05.735Z,13.19
2022-10-11T00:27:08.314Z,13.19
2022-10-11T00:28:10.712Z,13.22
2022-10-11T00:29:13.053Z,13.20
2022-10-11T00:30:15.688Z,13.22
2022-10-11T00:31:18.338Z,13.22
2022-10-11T00:32:20.737Z,13.21
2022-10-11T00:33:22.986Z,13.24
2022-10-11T00:34:25.690Z,13.25
2022-10-11T00:35:28.077Z,13.19
2022-10-11T00:36:30.260Z,13.23
2022-10-11T00:37:37.010Z,13.26
2022-10-11T00:38:39.423Z,13.18
2022-10-11T00:39:41.754Z,13.23
2022-10-11T00:40:44.471Z,13.29
2022-10-11T00:41:47.875Z,13.23
2022-10-11T00:42:50.265Z,13.18
2022-10-11T00:44:16.342Z,13.19
2022-10-11T00:45:27.719Z,13.18
2022-10-11T00:46:31.192Z,13.18
2022-10-11T00:47:33.424Z,13.18
2022-10-11T00:48:44.673Z,13.17
2022-10-11T00:49:57.870Z,13.15
2022-10-11T00:51:03.014Z,13.10
2022-10-11T00:52:17.134Z,13.10
2022-10-11T00:53:19.599Z,13.11
2022-10-11T00:54:25.677Z,13.14
2022-10-11T00:55:35.129Z,13.08
2022-10-11T00:56:39.904Z,13.08
2022-10-11T00:57:46.102Z,13.08
2022-10-11T00:58:48.640Z,13.01
2022-10-11T00:59:55.085Z,12.98
2022-10-11T01:00:57.919Z,12.93
2022-10-11T01:02:00.435Z,12.95
2022-10-11T01:03:04.828Z,13.03
2022-10-11T01:04:07.065Z,13.10
2022-10-11T01:05:28.631Z,13.13
2022-10-11T01:06:33.452Z,13.13
2022-10-11T01:07:37.804Z,13.09
2022-10-11T01:08:40.270Z,13.07
2022-10-11T01:09:42.425Z,13.05
2022-10-11T01:10:44.962Z,12.99
2022-10-11T01:11:48.411Z,13.02
2022-10-11T01:13:18.300Z,12.91
2022-10-11T01:14:20.571Z,12.96
2022-10-11T01:15:44.603Z,13.00
2022-10-11T01:17:01.580Z,12.99
2022-10-11T01:18:12.679Z,12.99
2022-10-11T01:19:14.922Z,12.94
2022-10-11T01:20:40.716Z,12.99
2022-10-11T01:21:57.645Z,12.90
2022-10-11T01:23:12.102Z,12.93
2022-10-11T01:24:46.777Z,12.92
2022-10-11T01:26:16.860Z,12.90
2022-10-11T01:27:40.973Z,12.84
2022-10-11T01:29:01.232Z,12.87
2022-10-11T01:30:33.065Z,12.93
2022-10-11T01:31:43.043Z,12.94
2022-10-11T01:33:16.539Z,12.84
2022-10-11T01:34:58.569Z,12.81
2022-10-11T01:36:27.705Z,12.78
2022-10-11T01:37:37.708Z,12.70
2022-10-11T01:39:06.739Z,12.63
2022-10-11T01:40:17.603Z,12.57
2022-10-11T01:41:31.271Z,12.57
2022-10-11T01:42:36.400Z,12.54
2022-10-11T01:43:41.112Z,12.52
2022-10-11T01:44:48.135Z,12.55
2022-10-11T01:45:52.344Z,12.52
2022-10-11T01:46:54.843Z,12.53
2022-10-11T01:48:03.977Z,12.50
2022-10-11T01:49:06.773Z,12.50
2022-10-11T01:50:31.426Z,12.50
2022-10-11T01:51:37.487Z,12.49
2022-10-11T01:52:44.491Z,12.45
2022-10-11T01:53:59.268Z,12.42
2022-10-11T01:55:14.025Z,12.38
2022-10-11T01:56:26.085Z,12.38
2022-10-11T01:57:46.759Z,12.33
2022-10-11T01:59:03.783Z,12.31
2022-10-11T02:00:18.037Z,12.25
2022-10-11T02:01:48.240Z,12.25
2022-10-11T02:03:06.146Z,12.22
2022-10-11T02:04:17.042Z,12.22
2022-10-11T02:05:25.136Z,12.19
2022-10-11T02:06:47.327Z,12.18
2022-10-11T02:08:31.238Z,12.14
2022-10-11T02:09:48.283Z,12.15
2022-10-11T02:11:05.775Z,12.12
2022-10-11T02:12:12.751Z,12.15
2022-10-11T02:13:38.030Z,12.16
2022-10-11T02:14:47.095Z,12.20
2022-10-11T02:15:50.659Z,12.19
2022-10-11T02:16:57.802Z,12.19
2022-10-11T02:18:05.992Z,12.17
2022-10-11T02:19:11.929Z,12.17
2022-10-11T02:20:19.876Z,12.22
2022-10-11T02:21:23.726Z,12.18
2022-10-11T02:22:34.078Z,12.17
2022-10-11T02:23:42.260Z,12.10
2022-10-11T02:24:49.189Z,12.11
2022-10-11T02:25:53.621Z,12.15
2022-10-11T02:26:57.515Z,12.14
2022-10-11T02:28:03.418Z,12.10
2022-10-11T02:29:10.304Z,12.12
2022-10-11T02:30:12.845Z,12.11
2022-10-11T02:31:17.165Z,12.09
2022-10-11T02:32:20.863Z,12.10
2022-10-11T02:33:30.071Z,12.06
2022-10-11T02:34:37.678Z,12.08
2022-10-11T02:35:46.104Z,12.01
2022-10-11T02:37:23.377Z,12.03
2022-10-11T02:38:30.338Z,12.02
2022-10-11T02:39:47.427Z,12.01
2022-10-11T02:41:05.635Z,12.04
2022-10-11T02:42:17.385Z,11.94
2022-10-11T02:43:28.332Z,11.87
2022-10-11T02:44:40.382Z,11.84
2022-10-11T02:45:49.951Z,11.83
2022-10-11T02:46:52.426Z,11.77
2022-10-11T02:47:55.009Z,11.72
2022-10-11T02:48:59.975Z,11.74
2022-10-11T02:50:02.907Z,11.60
2022-10-11T02:51:05.905Z,11.54
2022-10-11T02:52:08.140Z,11.50
2022-10-11T02:53:10.441Z,11.44
2022-10-11T02:54:12.735Z,11.46
2022-10-11T02:55:14.907Z,11.46
2022-10-11T02:56:17.191Z,11.45
2022-10-11T02:57:20.124Z,11.42
2022-10-11T02:58:23.475Z,11.38
2022-10-11T02:59:25.766Z,11.35
2022-10-11T03:00:28.114Z,11.36
2022-10-11T03:01:30.352Z,11.30
2022-10-11T03:02:33.063Z,11.29
2022-10-11T03:03:35.169Z,11.34
2022-10-11T03:04:37.563Z,11.40
2022-10-11T03:05:43.867Z,11.38
2022-10-11T03:06:46.111Z,11.24
2022-10-11T03:07:48.575Z,11.31
2022-10-11T03:08:50.704Z,11.27
2022-10-11T03:09:53.022Z,11.22
2022-10-11T03:10:55.171Z,11.27
2022-10-11T03:11:57.313Z,11.29
2022-10-11T03:13:02.604Z,11.26
2022-10-11T03:14:04.790Z,11.25
2022-10-11T03:15:07.342Z,11.26
2022-10-11T03:16:10.113Z,11.25
2022-10-11T03:17:35.014Z,11.26
2022-10-11T03:18:35.315Z,11.24
2022-10-11T03:19:39.926Z,11.36
2022-10-11T03:20:42.162Z,11.34
2022-10-11T03:21:44.720Z,11.31
2022-10-11T03:22:47.011Z,11.23
2022-10-11T03:23:49.391Z,11.25
2022-10-11T03:24:51.659Z,11.19
2022-10-11T03:25:53.835Z,11.13
2022-10-11T03:26:56.140Z,11.11
2022-10-11T03:27:58.491Z,11.10
2022-10-11T03:29:00.639Z,11.17
2022-10-11T03:30:03.674Z,11.22
2022-10-11T03:31:05.953Z,11.26
2022-10-11T03:32:08.102Z,11.21
2022-10-11T03:33:10.659Z,11.21
2022-10-11T03:34:12.853Z,11.20
2022-10-11T03:35:15.349Z,11.15
2022-10-11T03:36:17.657Z,11.12
2022-10-11T03:37:20.094Z,11.06
2022-10-11T03:38:22.799Z,11.07
2022-10-11T03:39:24.947Z,11.11
2022-10-11T03:40:27.234Z,11.11
2022-10-11T03:41:30.115Z,11.07
2022-10-11T03:42:32.277Z,11.01
2022-10-11T03:43:34.576Z,11.04
2022-10-11T03:44:36.780Z,11.05
2022-10-11T03:45:39.713Z,10.97
2022-10-11T03:46:41.860Z,10.95
2022-10-11T03:47:44.061Z,10.97
2022-10-11T03:48:46.356Z,10.94
2022-10-11T03:49:48.548Z,10.98
2022-10-11T03:50:50.740Z,11.08
2022-10-11T03:51:53.039Z,11.05
2022-10-11T03:52:55.193Z,11.04
2022-10-11T03:53:57.755Z,11.03
2022-10-11T03:54:59.909Z,11.03
2022-10-11T03:56:07.375Z,11.02
2022-10-11T03:57:10.714Z,11.00
2022-10-11T03:58:12.878Z,11.01
2022-10-11T03:59:15.046Z,10.95
2022-10-11T04:00:17.283Z,10.86
2022-10-11T04:01:19.594Z,10.89
2022-10-11T04:02:21.773Z,10.87
2022-10-11T04:03:23.993Z,10.84
2022-10-11T04:04:26.283Z,10.76
2022-10-11T04:05:28.455Z,10.78
2022-10-11T04:06:30.800Z,10.69
2022-10-11T04:07:33.351Z,10.77
2022-10-11T04:08:35.606Z,10.72
2022-10-11T04:09:38.121Z,10.68
2022-10-11T04:10:40.929Z,10.66
2022-10-11T04:11:43.077Z,10.63
2022-10-11T04:12:46.129Z,10.66
2022-10-11T04:13:48.492Z,10.69
2022-10-11T04:14:50.639Z,10.62
2022-10-11T04:15:52.909Z,10.59
2022-10-11T04:16:59.528Z,10.56
2022-10-11T04:18:02.469Z,10.54
2022-10-11T04:19:05.262Z,10.53
2022-10-11T04:20:08.044Z,10.49
2022-10-11T04:21:12.921Z,10.50
2022-10-11T04:22:15.246Z,10.54
2022-10-11T04:23:17.375Z,10.60
2022-10-11T04:24:19.846Z,10.57
2022-10-11T04:25:22.033Z,10.52
2022-10-11T04:26:24.285Z,10.50
2022-10-11T04:27:29.891Z,10.51
2022-10-11T04:28:33.143Z,10.57
2022-10-11T04:29:35.496Z,10.53
2022-10-11T04:30:37.689Z,10.51
2022-10-11T04:31:40.183Z,10.52
2022-10-11T04:32:42.703Z,10.49
2022-10-11T04:33:44.905Z,10.51
2022-10-11T04:34:47.324Z,10.48
2022-10-11T04:35:53.066Z,10.48
2022-10-11T04:36:55.241Z,10.43
2022-10-11T04:37:57.399Z,10.41
2022-10-11T04:39:01.771Z,10.38
2022-10-11T04:40:06.030Z,10.37
2022-10-11T04:41:09.982Z,10.33
2022-10-11T04:42:12.190Z,10.28
2022-10-11T04:43:16.636Z,10.24
2022-10-11T04:44:19.153Z,10.25
2022-10-11T04:45:21.825Z,10.20
2022-10-11T04:46:24.930Z,10.13
2022-10-11T04:47:27.194Z,10.11
2022-10-11T04:48:29.390Z,10.13
2022-10-11T04:49:31.701Z,10.11
2022-10-11T04:50:34.099Z,10.10
2022-10-11T04:51:36.284Z,10.13
2022-10-11T04:52:38.599Z,10.15
2022-10-11T04:53:40.775Z,10.10
2022-10-11T04:54:43.123Z,10.02
2022-10-11T04:55:45.448Z,10.03
2022-10-11T04:56:47.634Z,10.00
2022-10-11T04:57:49.815Z,10.09
2022-10-11T04:58:54.290Z,10.13
2022-10-11T04:59:56.729Z,10.12
2022-10-11T05:00:59.203Z,10.10
2022-10-11T05:02:01.464Z,10.09
2022-10-11T05:03:03.664Z,10.08
2022-10-11T05:04:05.925Z,10.10
2022-10-11T05:05:08.800Z,10.09
2022-10-11T05:06:11.236Z,10.00
2022-10-11T05:07:13.810Z,10.01
2022-10-11T05:08:16.350Z,9.95
2022-10-11T05:09:18.782Z,9.91
2022-10-11T05:10:21.040Z,9.87
2022-10-11T05:11:23.291Z,9.84
2022-10-11T05:12:25.632Z,9.86
2022-10-11T05:13:29.733Z,9.82
2022-10-11T05:14:31.939Z,9.81
2022-10-11T05:15:34.630Z,9.86
2022-10-11T05:16:36.767Z,9.83
2022-10-11T05:17:38.986Z,9.81
2022-10-11T05:18:41.439Z,9.84
2022-10-11T05:19:44.051Z,9.83
2022-10-11T05:20:46.415Z,9.89
2022-10-11T05:21:48.782Z,9.86
2022-10-11T05:22:51.191Z,9.83
2022-10-11T05:23:57.607Z,9.87
2022-10-11T05:25:00.122Z,9.85
2022-10-11T05:26:03.654Z,9.82
2022-10-11T05:27:06.020Z,9.83
2022-10-11T05:28:08.458Z,9.92
2022-10-11T05:29:10.649Z,9.89
2022-10-11T05:30:13.073Z,9.85
2022-10-11T05:31:16.403Z,9.79
2022-10-11T05:32:18.517Z,9.76
2022-10-11T05:33:21.404Z,9.72
2022-10-11T05:34:23.552Z,9.86
2022-10-11T05:35:26.061Z,9.85
2022-10-11T05:36:28.224Z,10.03
2022-10-11T05:37:30.387Z,10.28
2022-10-11T05:38:32.518Z,10.39
2022-10-11T05:39:34.856Z,10.32
2022-10-11T05:40:44.098Z,10.27
2022-10-11T05:41:46.244Z,10.31
2022-10-11T05:42:48.378Z,10.26
2022-10-11T05:43:50.598Z,10.14
2022-10-11T05:44:53.100Z,10.08
2022-10-11T05:45:55.500Z,10.28
2022-10-11T05:46:57.659Z,10.31
2022-10-11T05:47:59.954Z,10.28
2022-10-11T05:49:02.118Z,10.27
2022-10-11T05:50:04.447Z,10.23
2022-10-11T05:51:10.064Z,10.25
2022-10-11T05:52:13.242Z,10.26
2022-10-11T05:53:15.727Z,10.20
2022-10-11T05:54:18.075Z,10.20
2022-10-11T05:55:20.641Z,10.21
2022-10-11T05:56:24.785Z,10.12
2022-10-11T05:57:27.216Z,10.16
2022-10-11T05:58:29.444Z,10.14
2022-10-11T05:59:31.604Z,10.11
2022-10-11T06:00:40.431Z,10.17
2022-10-11T06:01:42.689Z,10.13
2022-10-11T06:02:45.205Z,10.01
2022-10-11T06:03:47.691Z,10.03
2022-10-11T06:04:50.308Z,10.12
2022-10-11T06:05:56.733Z,10.21
2022-10-11T06:06:59.407Z,10.31
2022-10-11T06:08:02.949Z,10.16
2022-10-11T06:09:05.254Z,10.12
2022-10-11T06:10:08.210Z,10.25
2022-10-11T06:11:15.084Z,10.26
2022-10-11T06:12:17.780Z,10.31
2022-10-11T06:13:19.967Z,10.33
2022-10-11T06:14:22.346Z,10.28
2022-10-11T06:15:25.163Z,10.44
2022-10-11T06:16:27.796Z,10.51
2022-10-11T06:17:29.920Z,10.42
2022-10-11T06:18:32.478Z,10.33
2022-10-11T06:19:34.655Z,10.36
2022-10-11T06:20:37.179Z,10.33
2022-10-11T06:21:39.826Z,10.40
2022-10-11T06:22:42.680Z,10.51
2022-10-11T06:23:48.737Z,10.53
2022-10-11T06:24:50.914Z,10.52
2022-10-11T06:25:57.561Z,10.51
2022-10-11T06:27:00.443Z,10.43
2022-10-11T06:28:03.062Z,10.43
2022-10-11T06:29:05.964Z,10.49
2022-10-11T06:30:08.949Z,10.47
2022-10-11T06:31:12.203Z,10.48
2022-10-11T06:32:14.429Z,10.46
2022-10-11T06:33:31.789Z,10.40
2022-10-11T06:34:34.125Z,10.48
2022-10-11T06:35:36.260Z,10.55
2022-10-11T06:36:38.618Z,10.64
2022-10-11T06:37:40.773Z,10.68
2022-10-11T06:38:45.212Z,10.65
2022-10-11T06:39:47.847Z,10.66
2022-10-11T06:40:49.973Z,10.64
2022-10-11T06:41:52.505Z,10.58
2022-10-11T06:42:54.639Z,10.62
2022-10-11T06:43:57.375Z,10.66
2022-10-11T06:44:59.750Z,10.61
2022-10-11T06:46:02.164Z,10.60
2022-10-11T06:47:06.759Z,10.63
2022-10-11T06:48:09.380Z,10.59
2022-10-11T06:49:11.503Z,10.61
2022-10-11T06:50:13.782Z,10.69
2022-10-11T06:51:19.275Z,10.71
2022-10-11T06:52:21.691Z,10.74
2022-10-11T06:53:23.834Z,10.78
2022-10-11T06:54:26.763Z,10.76
2022-10-11T06:55:28.956Z,11.02
2022-10-11T06:56:31.611Z,11.19
2022-10-11T06:57:33.781Z,11.34
2022-10-11T06:58:37.127Z,11.53
2022-10-11T06:59:39.317Z,11.72
2022-10-11T07:00:41.641Z,12.02
2022-10-11T07:01:43.996Z,12.35
2022-10-11T07:02:47.945Z,12.64
2022-10-11T07:03:52.349Z,12.87
2022-10-11T07:04:54.955Z,13.14
2022-10-11T07:06:08.024Z,13.47
2022-10-11T07:07:13.645Z,13.68
2022-10-11T07:08:15.779Z,13.77
2022-10-11T07:09:18.062Z,13.88
2022-10-11T07:10:20.228Z,13.99
2022-10-11T07:11:25.507Z,14.19
2022-10-11T07:12:28.837Z,14.36
2022-10-11T07:13:31.219Z,14.46
2022-10-11T07:14:33.499Z,14.55
2022-10-11T07:15:41.089Z,14.67
2022-10-11T07:16:43.215Z,14.69
2022-10-11T07:17:45.573Z,14.73
2022-10-11T07:18:54.796Z,14.76
2022-10-11T07:19:59.628Z,14.70
2022-10-11T07:21:07.660Z,14.89
2022-10-11T07:22:09.877Z,15.02
2022-10-11T07:23:12.493Z,14.79
2022-10-11T07:24:14.839Z,15.08
2022-10-11T07:25:17.349Z,15.32
2022-10-11T07:26:19.976Z,15.27
2022-10-11T07:27:23.405Z,15.32
2022-10-11T07:28:26.892Z,15.46
2022-10-11T07:29:29.168Z,15.59
2022-10-11T07:30:31.636Z,15.65
2022-10-11T07:31:33.798Z,15.82
2022-10-11T07:32:36.078Z,15.88
2022-10-11T07:33:38.451Z,15.77
2022-10-11T07:34:40.802Z,15.82
2022-10-11T07:35:48.074Z,15.90
2022-10-11T07:36:50.685Z,15.90
2022-10-11T07:37:53.025Z,15.89
2022-10-11T07:38:55.186Z,15.92
2022-10-11T07:39:57.455Z,15.86
2022-10-11T07:41:00.028Z,15.94
2022-10-11T07:42:02.494Z,15.84
2022-10-11T07:43:04.628Z,15.74
2022-10-11T07:44:06.833Z,15.65
2022-10-11T07:45:09.337Z,15.61
2022-10-11T07:46:11.898Z,15.55
2022-10-11T07:47:14.067Z,15.59
2022-10-11T07:48:16.398Z,15.70
2022-10-11T07:49:18.560Z,15.77
2022-10-11T07:50:20.862Z,15.68
2022-10-11T07:51:24.398Z,15.58
2022-10-11T07:52:26.547Z,15.48
2022-10-11T07:53:31.243Z,15.44
2022-10-11T07:54:33.721Z,15.46
2022-10-11T07:55:40.341Z,15.37
2022-10-11T07:56:42.512Z,15.43
2022-10-11T07:57:44.666Z,15.41
2022-10-11T07:58:51.609Z,15.32
2022-10-11T07:59:53.769Z,15.10
2022-10-11T08:00:56.123Z,15.18
2022-10-11T08:01:58.491Z,15.23
2022-10-11T08:03:07.263Z,15.25
2022-10-11T08:04:10.259Z,15.23
2022-10-11T08:05:12.699Z,15.02
2022-10-11T08:06:23.217Z,15.24
2022-10-11T08:07:26.276Z,15.44
2022-10-11T08:08:28.616Z,15.64
2022-10-11T08:09:31.735Z,15.82
2022-10-11T08:10:40.696Z,16.03
2022-10-11T08:11:45.666Z,16.06
2022-10-11T08:12:48.456Z,15.93
2022-10-11T08:13:53.340Z,15.68
2022-10-11T08:14:55.969Z,15.75
2022-10-11T08:15:58.515Z,15.84
2022-10-11T08:17:03.432Z,15.88
2022-10-11T08:18:05.633Z,15.91
2022-10-11T08:19:07.883Z,15.72
2022-10-11T08:20:10.421Z,15.81
2022-10-11T08:21:16.895Z,15.91
2022-10-11T08:22:19.121Z,15.96
2022-10-11T08:23:21.385Z,15.85
2022-10-11T08:24:24.993Z,15.98
2022-10-11T08:25:27.212Z,16.00
2022-10-11T08:26:32.427Z,15.95
2022-10-11T08:27:34.838Z,15.61
2022-10-11T08:28:37.289Z,15.61
2022-10-11T08:29:39.569Z,15.72
2022-10-11T08:30:48.016Z,15.86
2022-10-11T08:31:52.938Z,15.96
2022-10-11T08:32:55.336Z,16.05
2022-10-11T08:33:59.827Z,15.82
2022-10-11T08:35:02.186Z,15.81
2022-10-11T08:36:07.168Z,16.01
2022-10-11T08:37:12.524Z,16.05
2022-10-11T08:38:15.506Z,16.19
2022-10-11T08:39:17.737Z,16.41
2022-10-11T08:40:22.250Z,16.52
2022-10-11T08:41:27.830Z,16.50
2022-10-11T08:42:48.861Z,16.67
2022-10-11T08:44:26.484Z,16.80
2022-10-11T08:45:35.428Z,17.11
2022-10-11T08:46:42.219Z,17.15
2022-10-11T08:47:45.884Z,17.17
2022-10-11T08:48:52.091Z,17.25
2022-10-11T08:49:55.183Z,17.42
2022-10-11T08:51:01.165Z,17.42
2022-10-11T08:52:13.686Z,17.41
2022-10-11T08:53:48.009Z,17.40
2022-10-11T08:55:04.657Z,17.27
2022-10-11T08:56:09.405Z,17.41
2022-10-11T08:57:16.264Z,17.46
2022-10-11T08:58:42.436Z,17.63
2022-10-11T08:59:52.311Z,17.64
2022-10-11T09:00:56.623Z,17.61
2022-10-11T09:02:13.620Z,17.59
2022-10-11T09:03:31.466Z,17.48
2022-10-11T09:04:34.744Z,17.53
2022-10-11T09:05:48.501Z,17.64
2022-10-11T09:07:04.558Z,17.76
2022-10-11T09:08:25.594Z,17.80
2022-10-11T09:10:27.990Z,17.81
2022-10-11T09:11:55.102Z,17.24
2022-10-11T09:13:17.643Z,16.95
2022-10-11T09:14:38.373Z,16.73
2022-10-11T09:15:55.422Z,16.49
2022-10-11T09:17:07.606Z,16.59
2022-10-11T09:18:18.664Z,16.63
2022-10-11T09:19:27.412Z,16.66
2022-10-11T09:21:00.731Z,16.42
2022-10-11T09:22:17.004Z,16.20
2022-10-11T09:23:35.388Z,16.03
2022-10-11T09:25:12.794Z,16.12
2022-10-11T09:26:23.133Z,16.27
2022-10-11T09:28:05.647Z,16.55
2022-10-11T09:29:31.385Z,16.79
2022-10-11T09:30:40.189Z,16.92
2022-10-11T09:31:48.148Z,16.98
2022-10-11T09:33:03.890Z,16.91
2022-10-11T09:34:12.059Z,16.73
2022-10-11T09:35:14.542Z,16.65
2022-10-11T09:36:19.972Z,16.76
2022-10-11T09:37:42.005Z,16.78
2022-10-11T09:39:04.325Z,17.00
2022-10-11T09:40:35.104Z,17.16
2022-10-11T09:42:05.562Z,17.00
2022-10-11T09:43:09.306Z,16.94
2022-10-11T09:44:23.522Z,16.99
2022-10-11T09:45:25.832Z,17.07
2022-10-11T09:46:44.621Z,17.15
2022-10-11T09:47:48.362Z,17.16
2022-10-11T09:48:51.938Z,17.03
2022-10-11T09:50:15.655Z,16.55
2022-10-11T09:51:21.522Z,16.39
2022-10-11T09:52:25.464Z,15.99
2022-10-11T09:53:59.464Z,15.81
2022-10-11T09:55:02.834Z,15.91
2022-10-11T09:56:05.680Z,15.96
2022-10-11T09:57:23.615Z,16.03
2022-10-11T09:58:35.335Z,16.09
2022-10-11T09:59:37.643Z,16.02
2022-10-11T10:00:39.806Z,16.04
2022-10-11T10:01:42.066Z,15.90
2022-10-11T10:02:53.246Z,15.90
2022-10-11T10:04:17.015Z,16.01
2022-10-11T10:05:22.606Z,16.12
2022-10-11T10:06:27.550Z,16.21
2022-10-11T10:07:32.479Z,16.29
2022-10-11T10:08:35.693Z,16.18
2022-10-11T10:09:37.997Z,16.17
2022-10-11T10:10:55.791Z,16.05
2022-10-11T10:12:12.358Z,16.03
2022-10-11T10:13:22.353Z,15.86
2022-10-11T10:14:28.234Z,15.87
2022-10-11T10:15:49.237Z,15.83
2022-10-11T10:17:06.305Z,15.81
2022-10-11T10:18:22.384Z,15.79
2022-10-11T10:19:25.449Z,15.87
2022-10-11T10:20:33.512Z,16.04
2022-10-11T10:21:46.583Z,16.16
2022-10-11T10:22:49.173Z,16.31
2022-10-11T10:23:55.382Z,16.43
2022-10-11T10:25:02.261Z,16.38
2022-10-11T10:26:13.639Z,15.96
2022-10-11T10:27:24.687Z,15.87
2022-10-11T10:28:27.543Z,15.78
2022-10-11T10:29:29.843Z,15.79
2022-10-11T10:30:35.585Z,15.81
2022-10-11T10:32:12.760Z,16.00
2022-10-11T10:33:13.057Z,16.11
2022-10-11T10:34:19.417Z,16.17
2022-10-11T10:35:41.288Z,16.15
2022-10-11T10:36:47.605Z,16.24
2022-10-11T10:38:05.318Z,16.31
2022-10-11T10:39:18.425Z,16.34
2022-10-11T10:40:25.560Z,16.41
2022-10-11T10:41:27.841Z,16.46
2022-10-11T10:42:30.025Z,16.50
2022-10-11T10:43:37.586Z,16.41
2022-10-11T10:44:39.852Z,16.30
2022-10-11T10:46:08.498Z,16.13
2022-10-11T10:47:26.011Z,16.24
2022-10-11T10:49:19.062Z,16.22
2022-10-11T10:50:16.256Z,16.21
2022-10-11T10:51:41.220Z,16.18
2022-10-11T10:53:05.229Z,16.15
2022-10-11T10:54:44.385Z,16.08
2022-10-11T10:55:59.889Z,15.99
2022-10-11T10:57:10.056Z,16.03
2022-10-11T10:58:34.263Z,15.99
2022-10-11T11:00:00.148Z,16.07
2022-10-11T11:01:24.004Z,15.97
2022-10-11T11:02:52.587Z,16.00
2022-10-11T11:04:10.067Z,16.06
2022-10-11T11:05:12.519Z,16.05
2022-10-11T11:06:38.591Z,16.11
2022-10-11T11:08:06.878Z,16.15
2022-10-11T11:09:29.056Z,16.16
2022-10-11T11:10:40.092Z,16.21
2022-10-11T11:11:49.078Z,16.22
2022-10-11T11:13:14.319Z,16.23
2022-10-11T11:14:28.474Z,15.96
2022-10-11T11:15:40.892Z,15.85
2022-10-11T11:17:17.508Z,15.81
2022-10-11T11:18:22.754Z,15.80
2022-10-11T11:19:36.985Z,15.90
2022-10-11T11:20:55.355Z,16.02
2022-10-11T11:22:30.499Z,16.06
2022-10-11T11:23:43.819Z,16.30
2022-10-11T11:24:57.811Z,16.50
2022-10-11T11:26:18.245Z,16.63
2022-10-11T11:27:54.106Z,16.81
2022-10-11T11:28:59.205Z,16.78
2022-10-11T11:30:14.477Z,16.64
2022-10-11T11:31:36.384Z,16.47
2022-10-11T11:32:57.100Z,16.38
2022-10-11T11:34:13.946Z,16.39
2022-10-11T11:35:23.935Z,16.24
2022-10-11T11:36:44.303Z,16.09
2022-10-11T11:37:48.494Z,15.99
2022-10-11T11:39:01.735Z,15.86
2022-10-11T11:40:31.783Z,15.65
2022-10-11T11:41:47.730Z,15.63
2022-10-11T11:43:06.624Z,15.53
2022-10-11T11:44:27.318Z,15.39
2022-10-11T11:45:54.866Z,15.50
2022-10-11T11:47:03.129Z,15.55
2022-10-11T11:48:24.812Z,15.54
2022-10-11T11:49:50.100Z,15.64
2022-10-11T11:51:30.539Z,15.87
2022-10-11T11:52:44.084Z,16.02
2022-10-11T11:53:52.502Z,16.00
2022-10-11T11:55:03.817Z,16.00
2022-10-11T11:56:34.001Z,16.07
2022-10-11T11:58:24.052Z,16.26
2022-10-11T12:00:03.986Z,16.16
2022-10-11T12:01:31.505Z,16.33
2022-10-11T12:02:47.841Z,16.25
2022-10-11T12:03:55.172Z,16.20
2022-10-11T12:04:58.134Z,16.20
2022-10-11T12:06:35.945Z,16.29
2022-10-11T12:07:51.781Z,16.51
2022-10-11T12:09:22.757Z,16.66
2022-10-11T12:10:33.636Z,16.58
2022-10-11T12:11:44.459Z,16.69
2022-10-11T12:12:47.339Z,16.80
2022-10-11T12:13:52.162Z,16.68
2022-10-11T12:15:10.109Z,16.67
2022-10-11T12:16:15.624Z,16.80
2022-10-11T12:17:21.731Z,16.72
2022-10-11T12:18:24.161Z,16.68
2022-10-11T12:19:27.446Z,16.80
2022-10-11T12:20:29.966Z,16.91
2022-10-11T12:21:39.221Z,17.00
2022-10-11T12:22:58.300Z,17.08
2022-10-11T12:24:13.095Z,17.03
2022-10-11T12:25:18.493Z,16.92
2022-10-11T12:26:36.899Z,16.85
2022-10-11T12:27:46.332Z,16.72
2022-10-11T12:29:28.834Z,16.88
2022-10-11T12:30:53.353Z,16.94
2022-10-11T12:31:58.442Z,16.91
2022-10-11T12:33:15.240Z,16.87
2022-10-11T12:34:34.836Z,16.77
2022-10-11T12:35:40.035Z,16.69
2022-10-11T12:36:44.294Z,16.56
2022-10-11T12:37:51.439Z,16.43
2022-10-11T12:39:18.425Z,16.41
2022-10-11T12:40:42.367Z,16.32
2022-10-11T12:41:47.277Z,16.39
2022-10-11T12:43:14.292Z,16.24
2022-10-11T12:44:22.844Z,16.30
2022-10-11T12:45:31.799Z,16.29
2022-10-11T12:46:40.899Z,16.27
2022-10-11T12:48:06.198Z,16.22
2022-10-11T12:49:33.596Z,16.12
2022-10-11T12:50:42.000Z,16.07
2022-10-11T12:52:17.925Z,15.97
2022-10-11T12:53:26.196Z,15.87
2022-10-11T12:55:05.733Z,15.82
2022-10-11T12:56:41.863Z,15.72
2022-10-11T12:58:15.117Z,15.76
2022-10-11T12:59:21.370Z,15.78
2022-10-11T13:00:31.101Z,15.75
2022-10-11T13:01:37.430Z,15.81
2022-10-11T13:02:44.469Z,15.85
2022-10-11T13:04:00.024Z,15.94
2022-10-11T13:05:22.401Z,15.85
2022-10-11T13:06:28.133Z,15.89
2022-10-11T13:07:31.048Z,15.95
2022-10-11T13:08:37.230Z,15.97
2022-10-11T13:09:45.309Z,16.03
2022-10-11T13:10:51.070Z,16.07
2022-10-11T13:12:03.070Z,16.15
2022-10-11T13:13:15.695Z,16.21
2022-10-11T13:14:21.596Z,16.28
2022-10-11T13:15:24.462Z,16.32
2022-10-11T13:16:45.958Z,16.37
2022-10-11T13:17:54.345Z,16.35
2022-10-11T13:18:59.519Z,16.37
2022-10-11T13:20:08.666Z,16.43
2022-10-11T13:21:36.148Z,16.48
2022-10-11T13:22:40.289Z,16.48
2022-10-11T13:23:42.452Z,16.41
2022-10-11T13:24:45.109Z,16.45
2022-10-11T13:25:48.131Z,16.37
2022-10-11T13:26:54.585Z,16.28
2022-10-11T13:27:59.484Z,16.16
2022-10-11T13:29:01.920Z,16.24
2022-10-11T13:30:11.306Z,16.23
2022-10-11T13:31:13.496Z,16.31
2022-10-11T13:32:26.232Z,16.41
2022-10-11T13:33:35.708Z,16.46
2022-10-11T13:34:40.323Z,16.49
2022-10-11T13:35:42.513Z,16.50
2022-10-11T13:36:44.993Z,16.64
2022-10-11T13:37:49.009Z,16.77
2022-10-11T13:38:58.075Z,16.77
2022-10-11T13:40:00.346Z,16.77
2022-10-11T13:41:08.884Z,16.66
2022-10-11T13:42:16.910Z,16.67
2022-10-11T13:43:27.966Z,16.61
2022-10-11T13:44:33.029Z,16.66
2022-10-11T13:45:36.994Z,16.77
2022-10-11T13:46:41.690Z,16.79
2022-10-11T13:47:44.728Z,16.83
2022-10-11T13:48:56.276Z,16.97
2022-10-11T13:50:33.559Z,16.88
2022-10-11T13:51:37.639Z,16.85
2022-10-11T13:52:58.731Z,16.83
2022-10-11T13:54:02.526Z,16.87
2022-10-11T13:55:04.592Z,16.95
2022-10-11T13:56:09.201Z,17.00
2022-10-11T13:57:13.353Z,17.09
2022-10-11T13:58:20.148Z,17.04
2022-10-11T13:59:25.669Z,17.07
2022-10-11T14:00:39.131Z,17.08
2022-10-11T14:01:45.284Z,17.03
2022-10-11T14:02:56.205Z,17.01
2022-10-11T14:04:04.888Z,16.73
2022-10-11T14:05:07.579Z,16.75
2022-10-11T14:06:10.329Z,16.79
2022-10-11T14:07:29.755Z,16.84
2022-10-11T14:08:38.866Z,16.83
2022-10-11T14:09:47.219Z,16.82
2022-10-11T14:10:54.207Z,16.87
2022-10-11T14:12:35.559Z,16.76
2022-10-11T14:13:39.056Z,16.74
2022-10-11T14:14:42.847Z,16.60
2022-10-11T14:15:45.085Z,16.59
2022-10-11T14:16:58.644Z,16.55
2022-10-11T14:18:03.253Z,16.62
2022-10-11T14:19:10.726Z,16.64
2022-10-11T14:20:18.275Z,16.60
2022-10-11T14:21:20.388Z,16.59
2022-10-11T14:22:22.541Z,16.50
2022-10-11T14:23:24.747Z,16.40
2022-10-11T14:24:27.124Z,16.42
2022-10-11T14:25:29.714Z,16.40
2022-10-11T14:26:41.067Z,16.50
2022-10-11T14:27:43.337Z,16.45
2022-10-11T14:28:51.370Z,16.50
2022-10-11T14:30:23.594Z,16.56
2022-10-11T14:31:16.341Z,16.50
2022-10-11T14:32:24.259Z,16.44
2022-10-11T14:33:26.629Z,16.40
2022-10-11T14:34:29.786Z,16.30
2022-10-11T14:35:32.612Z,16.28
2022-10-11T14:36:34.782Z,16.25
2022-10-11T14:37:37.045Z,16.31
2022-10-11T14:38:39.257Z,16.38
2022-10-11T14:39:41.845Z,16.23